MDT,Max TemperatureF,Mean TemperatureF,Min TemperatureF,Max Dew PointF,MeanDew PointF,Min DewpointF,Max Humidity, Mean Humidity, Min Humidity, Max Sea Level PressureIn, Mean Sea Level PressureIn, Min Sea Level PressureIn, Max VisibilityMiles, Mean VisibilityMiles, Min VisibilityMiles, Max Wind SpeedMPH, Mean Wind SpeedMPH, Max Gust SpeedMPH,PrecipitationIn, CloudCover, Events, WindDirDegrees
2012-6-1,70,58,46,47,43,41,93,65,37,30.11,29.95,29.87,10,10,10,18,5,22,T,6,Rain,336
2012-6-2,76,59,42,49,42,35,89,57,25,29.91,29.79,29.63,10,10,6,37,8,49,0.01,3,Rain,286
2012-6-3,73,56,38,43,40,36,92,63,34,30.00,29.89,29.82,10,10,10,14,3,17,0.00,4,,304
2012-6-4,86,63,40,46,39,27,92,53,13,30.01,29.72,29.41,10,10,10,36,12,43,0.00,0,,118
2012-6-5,76,58,39,48,43,30,86,53,19,29.83,29.61,29.40,10,9,2,25,12,36,0.32,4,Rain-Thunderstorm,296
2012-6-6,54,44,33,37,31,25,100,66,32,30.11,29.95,29.75,10,8,2,22,7,30,0.31,6,Rain-Snow,213
2012-6-7,67,49,30,32,24,13,92,52,12,30.16,30.02,29.83,10,10,10,15,5,22,0.00,1,,164
2012-6-8,63,52,40,39,35,26,86,59,31,29.88,29.77,29.66,10,10,4,22,8,28,0.09,6,Rain,339
2012-6-9,51,44,36,36,30,20,92,62,32,29.92,29.80,29.73,10,10,6,21,8,29,0.02,7,Rain,305
2012-6-10,49,45,40,38,32,27,82,69,55,30.22,30.02,29.87,10,10,10,20,10,25,0.03,8,Rain,294
2012-6-11,65,51,37,39,34,32,85,58,30,30.27,30.18,30.11,10,10,10,13,4,21,0.00,4,,294
2012-6-12,69,52,35,48,37,29,92,57,22,30.18,30.01,29.85,10,10,1,23,4,30,0.01,4,Rain-Thunderstorm,142
2012-6-13,66,54,42,47,36,24,96,59,22,30.02,29.89,29.79,10,9,4,26,11,37,0.26,4,Rain,300
2012-6-14,70,52,33,36,28,18,82,48,14,30.02,29.95,29.86,10,10,1,18,4,24,0.00,0,,303
2012-6-15,69,54,38,35,31,25,79,50,20,30.16,30.02,29.92,10,10,10,17,6,23,0.00,2,,353
2012-6-16,76,55,34,32,25,13,76,43,9,30.19,30.06,29.89,10,10,10,17,5,26,0.00,0,,219
2012-6-17,73,60,47,40,34,30,56,41,25,29.90,29.69,29.55,10,10,10,28,11,39,T,4,,285
2012-6-18,67,54,40,35,30,24,62,42,22,29.81,29.64,29.53,10,10,10,25,11,33,0.00,2,,324
2012-6-19,57,44,31,32,30,27,85,62,38,30.06,29.93,29.82,10,10,9,22,9,28,T,3,,336
2012-6-20,68,50,32,34,30,26,85,54,22,30.25,30.13,30.05,10,10,10,10,4,14,0.00,1,,124
2012-6-21,80,58,35,34,29,24,82,49,15,30.11,29.97,29.81,10,10,10,21,5,29,0.00,0,,94
2012-6-22,82,70,58,43,37,30,44,32,20,29.79,29.66,29.56,10,10,10,22,6,29,T,1,Rain,147
2012-6-23,87,66,45,48,35,20,86,48,9,29.82,29.64,29.57,10,10,10,32,11,45,0.00,0,,144
2012-6-24,91,70,49,50,35,20,77,43,8,29.83,29.74,29.68,10,10,10,32,11,39,0.00,0,,188
2012-6-25,92,69,45,48,30,6,86,45,4,29.83,29.72,29.59,10,10,10,35,12,47,0.00,0,,184
2012-6-26,79,62,45,43,30,12,80,45,10,29.90,29.65,29.44,10,10,10,26,14,37,0.00,0,,213
2012-6-27,72,55,38,31,23,13,60,36,11,30.04,29.98,29.92,10,10,10,21,7,28,0.00,0,,275
2012-6-28,85,60,35,36,28,21,70,40,10,30.16,29.97,29.85,10,10,10,17,5,31,T,0,,84
2012-6-29,85,60,35,41,32,15,70,40,9,29.98,29.94,29.88,10,10,10,24,6,30,0.00,0,,299
2012-6-30,86,65,43,44,38,29,83,48,13,30.04,29.90,29.75,10,10,10,16,4,23,0.00,1,,162